Time;durP1;ratioP1;P1;durP2;ratioP2;P2;SDS_P1;SDS_P2;PMS_P1;PMS_P2;Temp;Humidity;BMP_temperature;BMP_pressure;BME280_temperature;BME280_humidity;BME280_pressure;Samples;Min_cycle;Max_cycle;Signal;HPM_P1;HPM_P2
2023/06/23 00:02:14;;;;;;;12.25;10.93;;;16.70;99.90;;;;;;4834673;29;20033;-69
2023/06/23 00:04:40;;;;;;;14.13;12.60;;;16.70;99.90;;;;;;4848086;29;20052;-68
2023/06/23 00:07:07;;;;;;;14.20;11.73;;;16.70;99.90;;;;;;4839636;29;20045;-68
2023/06/23 00:09:33;;;;;;;13.93;12.20;;;16.60;99.90;;;;;;4831013;29;20682;-68
2023/06/23 00:11:59;;;;;;;14.40;11.25;;;16.60;99.90;;;;;;4836045;29;21439;-68
2023/06/23 00:14:26;;;;;;;18.67;13.23;;;16.60;99.90;;;;;;4838234;29;20045;-68
2023/06/23 00:16:52;;;;;;;14.60;12.57;;;16.60;99.90;;;;;;4836761;29;20064;-68
2023/06/23 00:19:18;;;;;;;14.38;11.13;;;16.50;99.90;;;;;;4834304;29;20037;-68
2023/06/23 00:21:45;;;;;;;12.73;11.13;;;16.50;99.90;;;;;;4847066;29;20045;-66
2023/06/23 00:24:11;;;;;;;11.95;10.50;;;16.50;99.90;;;;;;4846906;29;20642;-68
2023/06/23 00:26:37;;;;;;;14.80;12.18;;;16.40;99.90;;;;;;4838296;29;20448;-68
2023/06/23 00:29:05;;;;;;;11.55;10.35;;;16.40;99.90;;;;;;4829591;29;20037;-68
2023/06/23 00:31:31;;;;;;;13.63;11.05;;;16.30;99.90;;;;;;4837518;29;20049;-68
2023/06/23 00:33:57;;;;;;;11.32;10.18;;;16.30;99.90;;;;;;4836579;29;20040;-68
2023/06/23 00:36:24;;;;;;;10.07;8.73;;;16.30;99.90;;;;;;4836032;29;20040;-68
2023/06/23 00:38:50;;;;;;;14.48;10.57;;;16.30;99.90;;;;;;4835722;29;20045;-68
2023/06/23 00:41:17;;;;;;;12.38;11.07;;;16.30;99.90;;;;;;4845206;29;20044;-68
2023/06/23 00:43:50;;;;;;;10.88;9.43;;;16.30;99.90;;;;;;4831157;29;20021;-68
2023/06/23 00:46:19;;;;;;;12.10;10.63;;;16.30;99.90;;;;;;4837053;29;20068;-68
2023/06/23 00:48:48;;;;;;;10.90;9.45;;;16.20;99.90;;;;;;4834358;29;21060;-68
2023/06/23 00:51:16;;;;;;;10.90;9.75;;;16.20;99.90;;;;;;4836129;29;20404;-68
2023/06/23 00:53:48;;;;;;;11.23;9.63;;;16.20;99.90;;;;;;4835548;29;20041;-68
2023/06/23 00:56:16;;;;;;;11.88;10.52;;;16.20;99.90;;;;;;4836003;29;20060;-68
2023/06/23 00:58:42;;;;;;;10.95;9.73;;;16.20;99.90;;;;;;4840153;29;21846;-68
2023/06/23 01:01:10;;;;;;;11.38;9.48;;;16.10;99.90;;;;;;4843364;29;20025;-68
2023/06/23 01:03:37;;;;;;;10.27;8.45;;;16.10;99.90;;;;;;4845033;29;20064;-68
2023/06/23 01:06:25;;;;;;;12.43;10.40;;;16.10;99.90;;;;;;4819903;29;21263;-68
2023/06/23 01:09:07;;;;;;;12.20;9.90;;;16.00;99.90;;;;;;4832122;29;20625;-68
2023/06/23 01:11:42;;;;;;;14.57;12.85;;;16.00;99.90;;;;;;4836554;29;20048;-68
2023/06/23 01:14:21;;;;;;;16.40;13.10;;;16.00;99.90;;;;;;4834584;29;20219;-68
2023/06/23 01:16:54;;;;;;;12.73;10.88;;;16.00;99.90;;;;;;4822153;29;20037;-68
2023/06/23 01:19:43;;;;;;;15.10;12.15;;;15.90;99.90;;;;;;4823795;29;20045;-68
2023/06/23 01:22:33;;;;;;;13.10;10.55;;;15.90;99.90;;;;;;4830744;29;20052;-68
2023/06/23 01:25:17;;;;;;;10.55;8.43;;;15.90;99.90;;;;;;4819969;29;20044;-68
2023/06/23 01:28:17;;;;;;;10.68;9.55;;;15.90;99.90;;;;;;4833076;29;20033;-68
2023/06/23 01:30:46;;;;;;;9.98;8.75;;;15.80;99.90;;;;;;4814884;29;20131;-68
2023/06/23 01:33:18;;;;;;;10.63;9.63;;;15.80;99.90;;;;;;4834529;29;20393;-68
2023/06/23 01:35:56;;;;;;;12.77;9.55;;;15.80;99.90;;;;;;4836398;29;20055;-68
2023/06/23 01:38:29;;;;;;;8.18;7.38;;;15.70;99.90;;;;;;4827581;29;20216;-68
2023/06/23 01:40:58;;;;;;;11.65;9.63;;;15.70;99.90;;;;;;4844057;29;20044;-68
2023/06/23 01:43:29;;;;;;;11.25;8.95;;;15.70;99.90;;;;;;4805727;29;20033;-68
2023/06/23 01:46:06;;;;;;;11.13;10.02;;;15.70;99.90;;;;;;4820230;29;20030;-68
2023/06/23 01:48:35;;;;;;;14.20;12.48;;;15.60;99.90;;;;;;4817109;29;20056;-68
2023/06/23 01:51:03;;;;;;;16.42;13.25;;;15.60;99.90;;;;;;4835113;29;20052;-68
2023/06/23 01:53:32;;;;;;;15.93;13.30;;;15.60;99.90;;;;;;4821158;29;20043;-68
2023/06/23 01:56:04;;;;;;;16.55;14.68;;;15.60;99.90;;;;;;4810191;29;20041;-68
2023/06/23 01:58:33;;;;;;;15.45;12.38;;;15.60;99.90;;;;;;4828207;29;20498;-68
2023/06/23 02:01:00;;;;;;;14.52;12.85;;;15.60;99.90;;;;;;4838963;29;20045;-67
2023/06/23 02:03:28;;;;;;;13.23;11.35;;;15.50;99.90;;;;;;4838750;29;20033;-68
2023/06/23 02:05:56;;;;;;;12.77;11.15;;;15.60;99.90;;;;;;4834269;29;20052;-68
2023/06/23 02:08:25;;;;;;;15.23;13.70;;;15.50;99.90;;;;;;4818734;29;20048;-68
2023/06/23 02:10:54;;;;;;;13.18;11.20;;;15.50;99.90;;;;;;4817408;29;20402;-68
2023/06/23 02:13:22;;;;;;;17.95;15.57;;;15.50;99.90;;;;;;4837967;29;20037;-68
2023/06/23 02:15:50;;;;;;;14.20;12.52;;;15.50;99.90;;;;;;4839326;29;20386;-68
2023/06/23 02:18:19;;;;;;;14.68;12.43;;;15.50;99.90;;;;;;4825736;29;20033;-68
2023/06/23 02:20:47;;;;;;;15.43;12.65;;;15.50;99.90;;;;;;4824151;29;20048;-68
2023/06/23 02:23:14;;;;;;;12.35;11.05;;;15.50;99.90;;;;;;4820482;29;20678;-68
2023/06/23 02:25:41;;;;;;;10.90;9.90;;;15.40;99.90;;;;;;4837089;29;20033;-68
2023/06/23 02:28:10;;;;;;;10.60;9.50;;;15.40;99.90;;;;;;4833828;29;20037;-68
2023/06/23 02:30:41;;;;;;;14.15;12.75;;;15.40;99.90;;;;;;4829092;29;20039;-68
2023/06/23 02:33:07;;;;;;;12.90;11.50;;;15.40;99.90;;;;;;4833971;29;20408;-68
2023/06/23 02:35:34;;;;;;;12.90;11.45;;;15.40;99.90;;;;;;4823713;29;20401;-68
2023/06/23 02:38:04;;;;;;;14.05;12.10;;;15.40;99.90;;;;;;4843613;29;20393;-68
2023/06/23 02:40:34;;;;;;;13.93;11.32;;;15.30;99.90;;;;;;4835810;29;20057;-68
2023/06/23 02:43:23;;;;;;;12.05;10.77;;;15.30;99.90;;;;;;4835132;29;20831;-68
2023/06/23 02:45:55;;;;;;;15.63;13.68;;;15.30;99.90;;;;;;4832434;29;20274;-68
2023/06/23 02:48:29;;;;;;;16.05;14.35;;;15.30;99.90;;;;;;4830365;29;20048;-68
2023/06/23 02:50:57;;;;;;;13.45;12.05;;;15.30;99.90;;;;;;4834239;29;20041;-68
2023/06/23 02:53:28;;;;;;;11.88;10.68;;;15.30;99.90;;;;;;4835980;29;20036;-68
2023/06/23 02:56:11;;;;;;;14.52;13.02;;;15.30;99.90;;;;;;4828457;29;21456;-68
2023/06/23 02:58:39;;;;;;;14.07;12.57;;;15.20;99.90;;;;;;4824322;29;20040;-68
2023/06/23 03:01:08;;;;;;;13.35;11.98;;;15.20;99.90;;;;;;4818063;29;20053;-68
2023/06/23 03:03:39;;;;;;;14.98;12.20;;;15.20;99.90;;;;;;4835708;29;20041;-68
2023/06/23 03:06:05;;;;;;;13.32;11.70;;;15.20;99.90;;;;;;4833412;29;20033;-68
2023/06/23 03:08:32;;;;;;;16.40;14.68;;;15.20;99.90;;;;;;4829283;29;20048;-68
2023/06/23 03:10:58;;;;;;;14.65;13.15;;;15.20;99.90;;;;;;4830587;29;20056;-68
2023/06/23 03:13:25;;;;;;;14.43;12.93;;;15.20;99.90;;;;;;4837486;29;20448;-68
2023/06/23 03:15:57;;;;;;;15.63;12.35;;;15.20;99.90;;;;;;4844117;29;20401;-68
2023/06/23 03:18:27;;;;;;;13.48;12.15;;;15.10;99.90;;;;;;4827355;29;20123;-67
2023/06/23 03:20:59;;;;;;;12.85;11.55;;;15.10;99.90;;;;;;4835246;29;20026;-67
2023/06/23 03:23:27;;;;;;;16.33;13.85;;;15.10;99.90;;;;;;4854165;29;20540;-68
2023/06/23 03:25:54;;;;;;;15.43;13.85;;;15.10;99.90;;;;;;4837533;29;20032;-70
2023/06/23 03:28:27;;;;;;;20.42;18.00;;;15.10;99.90;;;;;;4834682;29;20579;-70
2023/06/23 03:31:00;;;;;;;18.58;16.60;;;15.10;99.90;;;;;;4847602;29;20049;-71
2023/06/23 03:33:33;;;;;;;22.48;20.20;;;15.10;99.90;;;;;;4842567;29;20047;-70
2023/06/23 03:36:23;;;;;;;22.08;19.73;;;15.10;99.90;;;;;;4829954;29;20047;-69
2023/06/23 03:39:02;;;;;;;23.38;20.67;;;15.10;99.90;;;;;;4838790;29;20328;-68
2023/06/23 03:41:30;;;;;;;18.88;16.88;;;15.10;99.90;;;;;;4835547;29;20056;-68
2023/06/23 03:44:01;;;;;;;20.05;16.98;;;15.10;99.90;;;;;;4838000;29;20041;-68
2023/06/23 03:46:37;;;;;;;17.25;15.20;;;15.10;99.90;;;;;;4835520;29;21220;-68
2023/06/23 03:49:07;;;;;;;18.30;16.38;;;15.10;99.90;;;;;;4816282;29;20041;-68
2023/06/23 03:51:38;;;;;;;19.45;16.42;;;15.10;99.90;;;;;;4836726;29;20060;-68
2023/06/23 03:54:06;;;;;;;20.90;17.05;;;15.10;99.90;;;;;;4845936;29;20056;-68
2023/06/23 03:56:34;;;;;;;21.40;16.65;;;15.10;99.90;;;;;;4849843;29;20045;-68
2023/06/23 03:59:02;;;;;;;20.45;17.92;;;15.10;99.90;;;;;;4838390;29;20693;-68
2023/06/23 04:01:30;;;;;;;21.55;19.27;;;15.10;99.90;;;;;;4837058;29;20037;-68
2023/06/23 04:03:58;;;;;;;20.33;17.80;;;15.10;99.90;;;;;;4835351;29;23096;-68
2023/06/23 04:06:27;;;;;;;22.23;19.40;;;15.10;99.90;;;;;;4838304;29;20033;-68
2023/06/23 04:08:55;;;;;;;23.23;20.23;;;15.10;99.90;;;;;;4830141;29;20041;-68
2023/06/23 04:11:23;;;;;;;26.55;23.63;;;15.10;99.90;;;;;;4837481;29;20041;-65
2023/06/23 04:13:51;;;;;;;31.50;25.70;;;15.10;99.90;;;;;;4848628;29;20048;-66
2023/06/23 04:16:19;;;;;;;34.03;27.52;;;15.20;99.90;;;;;;4830813;29;20043;-66
2023/06/23 04:18:48;;;;;;;32.15;27.35;;;15.20;99.90;;;;;;4837689;29;20041;-65
2023/06/23 04:21:16;;;;;;;36.15;29.10;;;15.30;99.90;;;;;;4853128;29;20044;-65
2023/06/23 04:23:44;;;;;;;37.65;30.48;;;15.30;99.90;;;;;;4835358;29;20346;-68
2023/06/23 04:26:12;;;;;;;38.53;29.05;;;15.30;99.90;;;;;;4836060;29;20037;-68
2023/06/23 04:28:43;;;;;;;48.03;35.05;;;15.40;99.90;;;;;;4832116;29;20596;-68
2023/06/23 04:31:10;;;;;;;41.88;30.92;;;15.40;99.90;;;;;;4837325;29;20053;-68
2023/06/23 04:33:37;;;;;;;45.20;34.42;;;15.40;99.90;;;;;;4847522;29;20033;-68
2023/06/23 04:36:12;;;;;;;44.83;33.55;;;15.50;99.90;;;;;;4831759;29;20044;-68
2023/06/23 04:38:43;;;;;;;44.25;34.45;;;15.50;99.90;;;;;;4836204;29;20041;-68
2023/06/23 04:41:15;;;;;;;49.58;37.97;;;15.60;99.90;;;;;;4834549;29;20037;-68
2023/06/23 04:43:45;;;;;;;50.58;39.85;;;15.60;99.90;;;;;;4837114;29;20037;-68
2023/06/23 04:46:29;;;;;;;41.42;32.38;;;15.60;99.90;;;;;;4838156;29;20033;-69
2023/06/23 04:49:17;;;;;;;47.03;34.72;;;15.70;99.90;;;;;;4831333;29;20495;-68
2023/06/23 04:51:46;;;;;;;49.50;37.38;;;15.70;99.90;;;;;;4837850;29;20044;-68
2023/06/23 04:54:25;;;;;;;56.83;40.67;;;15.80;99.90;;;;;;4846468;29;20036;-68
2023/06/23 04:57:00;;;;;;;56.03;40.45;;;15.90;99.90;;;;;;4846590;29;20518;-68
2023/06/23 04:59:32;;;;;;;51.70;37.30;;;16.00;99.90;;;;;;4814350;29;20041;-68
2023/06/23 05:02:01;;;;;;;51.55;35.67;;;16.10;99.90;;;;;;4836884;29;20040;-68
2023/06/23 05:04:29;;;;;;;52.45;39.22;;;16.20;99.90;;;;;;4834252;29;20712;-68
2023/06/23 05:06:58;;;;;;;50.50;37.63;;;16.30;99.90;;;;;;4838904;29;20032;-68
2023/06/23 05:09:25;;;;;;;58.65;41.70;;;16.30;99.90;;;;;;4830237;29;20052;-68
2023/06/23 05:11:54;;;;;;;60.75;42.22;;;16.50;99.90;;;;;;4844446;29;20883;-68
2023/06/23 05:14:23;;;;;;;52.75;39.20;;;16.50;99.90;;;;;;4848334;29;20037;-68
2023/06/23 05:16:51;;;;;;;74.13;50.95;;;16.60;99.90;;;;;;4843911;29;20044;-68
2023/06/23 05:19:18;;;;;;;60.75;42.78;;;16.70;99.90;;;;;;4831634;29;20504;-68
2023/06/23 05:21:45;;;;;;;58.83;41.33;;;16.80;99.90;;;;;;4837700;29;20044;-68
2023/06/23 05:24:13;;;;;;;60.35;42.67;;;16.90;99.90;;;;;;4835151;29;20040;-68
2023/06/23 05:26:41;;;;;;;60.08;43.45;;;17.00;99.90;;;;;;4835932;29;20048;-68
2023/06/23 05:29:09;;;;;;;53.88;39.10;;;17.00;99.90;;;;;;4831117;29;20040;-68
2023/06/23 05:31:40;;;;;;;56.25;39.33;;;17.10;99.90;;;;;;4845833;29;20059;-68
2023/06/23 05:34:10;;;;;;;66.60;47.58;;;17.20;99.90;;;;;;4845755;29;20033;-68
2023/06/23 05:36:37;;;;;;;66.75;48.88;;;17.20;99.90;;;;;;4838211;29;20084;-68
2023/06/23 05:39:05;;;;;;;58.88;41.92;;;17.30;99.90;;;;;;4828794;29;20036;-68
2023/06/23 05:41:32;;;;;;;57.67;41.78;;;17.40;99.90;;;;;;4849519;29;20040;-68
2023/06/23 05:43:58;;;;;;;53.78;41.22;;;17.40;99.90;;;;;;4836203;29;21887;-68
2023/06/23 05:46:28;;;;;;;50.60;38.03;;;17.50;99.90;;;;;;4818134;29;20041;-68
2023/06/23 05:49:00;;;;;;;49.72;38.28;;;17.60;99.90;;;;;;4833693;29;20037;-68
2023/06/23 05:51:29;;;;;;;;;;;17.60;99.90;;;;;;4848074;29;20052;-67
2023/06/23 05:53:59;;;;;;;53.25;40.90;;;17.60;99.90;;;;;;4847193;29;20303;-68
2023/06/23 05:56:36;;;;;;;49.67;40.03;;;17.70;99.90;;;;;;4837364;29;20367;-68
2023/06/23 05:59:08;;;;;;;57.13;44.55;;;17.80;99.90;;;;;;4844140;29;20508;-68
2023/06/23 06:01:40;;;;;;;62.17;44.28;;;17.90;99.90;;;;;;4835216;29;20988;-68
2023/06/23 06:04:17;;;;;;;59.40;43.47;;;17.90;99.90;;;;;;4836728;29;20056;-68
2023/06/23 06:06:47;;;;;;;49.35;36.63;;;18.00;99.90;;;;;;4835922;29;20040;-68
2023/06/23 06:09:15;;;;;;;61.78;44.65;;;18.10;99.90;;;;;;4834187;29;20037;-68
2023/06/23 06:11:44;;;;;;;54.97;41.42;;;18.10;99.90;;;;;;4846530;29;20033;-67
2023/06/23 06:14:12;;;;;;;49.17;37.15;;;18.20;99.90;;;;;;4843855;29;20041;-68
2023/06/23 06:16:40;;;;;;;47.35;36.90;;;18.30;99.90;;;;;;4834380;29;20037;-67
2023/06/23 06:19:07;;;;;;;53.83;38.42;;;18.40;99.90;;;;;;4827597;29;20049;-67
2023/06/23 06:21:37;;;;;;;49.33;36.70;;;18.50;99.90;;;;;;4834712;29;20603;-67
2023/06/23 06:24:04;;;;;;;55.88;43.35;;;18.60;99.90;;;;;;4835131;29;20056;-67
2023/06/23 06:26:31;;;;;;;48.72;40.40;;;18.60;99.90;;;;;;4834958;29;20037;-68
2023/06/23 06:29:00;;;;;;;55.72;42.03;;;18.80;99.90;;;;;;4818904;29;20418;-68
2023/06/23 06:31:29;;;;;;;58.80;44.90;;;19.00;99.90;;;;;;4843407;29;20606;-68
2023/06/23 06:33:59;;;;;;;53.47;42.33;;;19.20;99.90;;;;;;4837092;29;20030;-68
2023/06/23 06:36:28;;;;;;;47.97;38.47;;;19.50;99.90;;;;;;4834646;29;21875;-68
2023/06/23 06:38:56;;;;;;;45.40;37.25;;;19.70;99.90;;;;;;4826827;29;20084;-68
2023/06/23 06:41:23;;;;;;;46.33;38.28;;;19.90;99.90;;;;;;4834937;29;20489;-68
2023/06/23 06:43:50;;;;;;;40.50;33.28;;;19.90;99.90;;;;;;4834859;29;20055;-69
2023/06/23 06:46:18;;;;;;;37.35;32.65;;;19.80;99.90;;;;;;4818719;29;21170;-71
2023/06/23 06:48:47;;;;;;;33.17;28.80;;;19.80;99.90;;;;;;4839320;29;20052;-69
2023/06/23 06:51:19;;;;;;;40.90;33.45;;;19.80;99.90;;;;;;4825570;29;20045;-68
2023/06/23 06:53:46;;;;;;;35.90;30.27;;;19.80;99.90;;;;;;4841563;29;20034;-69
2023/06/23 06:56:13;;;;;;;33.92;30.08;;;19.90;99.90;;;;;;4836801;29;20056;-71
2023/06/23 06:58:40;;;;;;;38.13;32.47;;;20.00;99.90;;;;;;4830843;29;20045;-70
2023/06/23 07:01:11;;;;;;;33.45;28.67;;;20.00;99.90;;;;;;4828267;29;20481;-67
2023/06/23 07:03:41;;;;;;;32.58;28.90;;;20.10;99.90;;;;;;4818080;29;20056;-73
2023/06/23 07:06:07;;;;;;;35.42;30.00;;;20.00;99.90;;;;;;4832409;29;20033;-66
2023/06/23 07:08:34;;;;;;;33.60;27.42;;;20.10;99.90;;;;;;4836640;29;20323;-66
2023/06/23 07:11:01;;;;;;;34.08;29.77;;;20.20;99.90;;;;;;4839968;29;20413;-67
2023/06/23 07:13:27;;;;;;;31.08;27.83;;;20.30;99.90;;;;;;4813739;29;20497;-66
2023/06/23 07:15:53;;;;;;;26.77;23.63;;;20.50;99.90;;;;;;4831509;29;20052;-66
2023/06/23 07:18:20;;;;;;;27.35;24.35;;;20.60;99.90;;;;;;4829514;29;20091;-66
2023/06/23 07:20:46;;;;;;;26.23;23.30;;;20.90;99.90;;;;;;4825016;29;20044;-67
2023/06/23 07:23:12;;;;;;;24.92;22.33;;;21.00;99.90;;;;;;4832202;29;20033;-66
2023/06/23 07:25:39;;;;;;;25.58;22.80;;;21.20;99.90;;;;;;4837603;29;20040;-66
2023/06/23 07:28:05;;;;;;;27.50;24.58;;;21.40;99.90;;;;;;4843644;29;20037;-67
2023/06/23 07:30:31;;;;;;;21.55;19.25;;;21.60;99.90;;;;;;4837781;29;20049;-66
2023/06/23 07:32:58;;;;;;;21.65;19.30;;;21.80;99.90;;;;;;4821256;29;20037;-66
2023/06/23 07:35:24;;;;;;;23.10;19.50;;;21.90;99.90;;;;;;4836692;29;20033;-66
2023/06/23 07:37:50;;;;;;;20.52;18.10;;;21.90;99.90;;;;;;4834127;29;20400;-66
2023/06/23 07:40:17;;;;;;;21.42;19.20;;;21.90;99.90;;;;;;4821954;29;20044;-66
2023/06/23 07:42:43;;;;;;;14.45;12.95;;;22.10;99.90;;;;;;4829276;29;21917;-66
2023/06/23 07:45:09;;;;;;;14.63;13.13;;;22.30;99.90;;;;;;4833738;29;20056;-66
2023/06/23 07:47:36;;;;;;;18.15;16.35;;;22.50;99.90;;;;;;4825607;29;20388;-69
2023/06/23 07:50:02;;;;;;;18.40;16.50;;;22.70;99.90;;;;;;4836211;29;20052;-69
2023/06/23 07:52:29;;;;;;;18.38;16.48;;;22.80;99.90;;;;;;4822988;29;20041;-68
2023/06/23 07:54:55;;;;;;;16.80;15.10;;;22.80;99.90;;;;;;4818530;29;20045;-68
2023/06/23 07:57:22;;;;;;;19.90;16.92;;;22.80;99.90;;;;;;4835470;29;20037;-68
2023/06/23 07:59:49;;;;;;;18.15;16.25;;;22.90;99.90;;;;;;4825921;29;20048;-67
2023/06/23 08:02:15;;;;;;;14.65;13.25;;;23.00;99.90;;;;;;4803991;29;20048;-66
2023/06/23 08:04:41;;;;;;;15.13;13.63;;;23.10;99.90;;;;;;4838231;29;20043;-66
2023/06/23 08:07:08;;;;;;;14.32;12.57;;;23.10;99.90;;;;;;4846729;29;20025;-67
2023/06/23 08:09:34;;;;;;;15.10;13.05;;;23.10;99.90;;;;;;4838708;29;20048;-66
2023/06/23 08:12:00;;;;;;;13.98;11.98;;;23.10;99.90;;;;;;4836102;29;20048;-66
2023/06/23 08:14:27;;;;;;;10.43;9.40;;;23.20;99.90;;;;;;4833186;29;20472;-72
2023/06/23 08:16:53;;;;;;;11.93;9.98;;;23.30;99.90;;;;;;4832950;29;20602;-67
2023/06/23 08:19:22;;;;;;;10.98;9.57;;;23.30;99.90;;;;;;4823635;29;21879;-67
2023/06/23 08:21:49;;;;;;;8.65;7.85;;;23.40;99.90;;;;;;4832986;29;20559;-67
2023/06/23 08:24:15;;;;;;;10.50;9.45;;;23.50;99.90;;;;;;4840128;29;20056;-67
2023/06/23 08:26:42;;;;;;;10.88;8.55;;;23.60;99.90;;;;;;4845873;29;20033;-67
2023/06/23 08:29:09;;;;;;;9.30;8.48;;;23.60;99.90;;;;;;4834394;29;20049;-67
2023/06/23 08:31:35;;;;;;;10.27;8.27;;;23.60;99.90;;;;;;4832879;29;20040;-67
2023/06/23 08:34:02;;;;;;;7.63;6.90;;;23.70;99.90;;;;;;4831289;29;20057;-67
2023/06/23 08:36:28;;;;;;;6.93;6.32;;;23.90;99.90;;;;;;4833777;29;20028;-67
2023/06/23 08:38:54;;;;;;;5.28;4.78;;;24.00;99.90;;;;;;4827893;29;20037;-68
2023/06/23 08:41:21;;;;;;;5.70;5.15;;;24.10;99.90;;;;;;4832221;29;20037;-68
2023/06/23 08:43:49;;;;;;;6.18;5.57;;;24.10;99.90;;;;;;4838928;29;20083;-69
2023/06/23 08:46:16;;;;;;;7.22;6.53;;;24.30;99.90;;;;;;4842984;29;20041;-69
2023/06/23 08:48:48;;;;;;;8.98;6.63;;;24.30;99.90;;;;;;4834318;29;20075;-69
2023/06/23 08:51:15;;;;;;;6.05;4.75;;;24.40;99.90;;;;;;4830821;29;20045;-70
2023/06/23 08:53:43;;;;;;;6.05;5.53;;;24.40;99.90;;;;;;4833511;29;20049;-67
2023/06/23 08:56:10;;;;;;;6.40;5.80;;;24.50;99.90;;;;;;4832841;29;20049;-68
2023/06/23 08:58:37;;;;;;;5.82;4.50;;;24.40;99.90;;;;;;4826607;29;20067;-68
2023/06/23 09:01:05;;;;;;;6.15;5.65;;;24.50;99.90;;;;;;4828428;29;20132;-68
2023/06/23 09:03:32;;;;;;;6.55;5.95;;;24.50;99.90;;;;;;4841150;29;20041;-68
2023/06/23 09:06:00;;;;;;;5.97;5.47;;;24.60;99.90;;;;;;4842703;29;20029;-68
2023/06/23 09:08:27;;;;;;;4.90;4.50;;;24.60;99.90;;;;;;4807290;29;20040;-68
2023/06/23 09:10:53;;;;;;;3.90;3.60;;;24.70;99.90;;;;;;4828602;29;20037;-68
2023/06/23 09:13:27;;;;;;;5.28;4.75;;;24.80;99.90;;;;;;4834420;29;20049;-68
2023/06/23 09:15:54;;;;;;;4.68;4.20;;;24.90;99.90;;;;;;4833285;29;20064;-68
2023/06/23 09:18:21;;;;;;;4.93;4.43;;;24.90;99.90;;;;;;4829734;29;20636;-67
2023/06/23 09:20:52;;;;;;;4.28;3.88;;;24.90;99.90;;;;;;4811690;29;21657;-67
2023/06/23 09:23:20;;;;;;;3.90;3.50;;;25.00;99.90;;;;;;4827809;29;20048;-68
2023/06/23 09:25:48;;;;;;;3.75;3.00;;;25.00;99.90;;;;;;4827947;29;20300;-69
2023/06/23 09:28:21;;;;;;;3.47;3.17;;;25.10;99.90;;;;;;4836618;29;20044;-68
2023/06/23 09:30:47;;;;;;;2.50;1.95;;;25.30;99.90;;;;;;4824221;29;20068;-67
2023/06/23 09:33:14;;;;;;;5.00;3.67;;;25.40;99.90;;;;;;4832215;29;20045;-68
2023/06/23 09:35:54;;;;;;;3.05;2.75;;;25.50;99.90;;;;;;4832721;29;20029;-68
2023/06/23 09:38:22;;;;;;;3.33;3.03;;;25.60;99.90;;;;;;4833313;29;20041;-68
2023/06/23 09:41:20;;;;;;;4.38;3.60;;;25.70;99.90;;;;;;4829967;29;20498;-69
2023/06/23 09:43:51;;;;;;;3.88;3.47;;;25.80;99.90;;;;;;4828784;29;20489;-68
2023/06/23 09:46:19;;;;;;;4.72;4.22;;;26.00;99.90;;;;;;4827462;29;20033;-69
2023/06/23 09:48:50;;;;;;;5.70;3.72;;;26.10;99.90;;;;;;4829910;29;20040;-69
2023/06/23 09:51:20;;;;;;;3.95;3.15;;;26.40;99.90;;;;;;4841598;29;20033;-68
2023/06/23 09:53:47;;;;;;;3.65;3.03;;;26.50;99.90;;;;;;4830849;29;20053;-68
2023/06/23 09:56:19;;;;;;;3.35;3.00;;;26.60;99.90;;;;;;4832870;29;20056;-68
2023/06/23 09:58:47;;;;;;;2.50;1.92;;;26.70;99.90;;;;;;4829060;29;20036;-68
2023/06/23 10:01:18;;;;;;;3.20;2.60;;;26.80;99.90;;;;;;4833831;29;20045;-68
2023/06/23 10:03:46;;;;;;;3.20;2.53;;;27.00;99.90;;;;;;4843220;29;20878;-68
2023/06/23 10:06:26;;;;;;;2.95;2.03;;;27.10;99.90;;;;;;4840702;29;20093;-70
2023/06/23 10:08:57;;;;;;;4.13;2.72;;;27.30;99.90;;;;;;4811487;29;21996;-69
2023/06/23 10:11:39;;;;;;;4.30;3.08;;;27.40;99.90;;;;;;4830216;29;20052;-69
2023/06/23 10:14:08;;;;;;;2.27;2.07;;;27.50;99.90;;;;;;4832536;29;20029;-69
2023/06/23 10:16:36;;;;;;;2.58;2.30;;;27.30;99.90;;;;;;4833145;29;20088;-70
2023/06/23 10:19:04;;;;;;;3.67;2.72;;;27.00;99.90;;;;;;4824232;29;20033;-69
2023/06/23 10:21:31;;;;;;;2.30;2.03;;;26.90;99.90;;;;;;4838304;29;20067;-69
2023/06/23 10:24:03;;;;;;;2.88;1.90;;;26.90;99.90;;;;;;4813270;29;20036;-70
2023/06/23 10:26:31;;;;;;;;;;;27.00;99.90;;;;;;4837478;29;20041;-69
2023/06/23 10:28:59;;;;;;;3.58;2.00;;;27.20;99.90;;;;;;4824974;29;19926;-69
2023/06/23 10:31:30;;;;;;;2.55;2.35;;;27.30;99.90;;;;;;4830237;29;20056;-69
2023/06/23 10:33:59;;;;;;;3.30;2.92;;;27.40;99.90;;;;;;4835273;29;20033;-70
2023/06/23 10:36:27;;;;;;;3.67;3.25;;;27.60;99.90;;;;;;4835109;29;20515;-70
2023/06/23 10:38:55;;;;;;;4.43;2.55;;;27.80;99.90;;;;;;4831221;29;20033;-69
2023/06/23 10:41:25;;;;;;;3.10;2.25;;;28.10;99.90;;;;;;4840478;29;20372;-72
2023/06/23 10:43:54;;;;;;;2.00;1.75;;;28.40;99.90;;;;;;4843095;29;20803;-72
2023/06/23 10:46:22;;;;;;;3.47;2.35;;;28.60;99.90;;;;;;4839407;29;20531;-72
2023/06/23 10:48:49;;;;;;;3.15;2.47;;;28.70;99.90;;;;;;4830787;29;22588;-73
2023/06/23 10:51:16;;;;;;;3.50;2.42;;;28.70;99.90;;;;;;4830471;29;20056;-73
2023/06/23 10:54:00;;;;;;;2.35;1.70;;;28.40;99.90;;;;;;4832686;29;20719;-71
2023/06/23 10:56:37;;;;;;;4.57;3.13;;;28.40;99.90;;;;;;4830456;29;20742;-70
2023/06/23 10:59:30;;;;;;;6.25;3.15;;;28.50;99.90;;;;;;4825158;29;20047;-70
2023/06/23 11:01:59;;;;;;;4.55;2.88;;;28.80;99.60;;;;;;4824005;29;20049;-70
2023/06/23 11:04:30;;;;;;;4.45;4.05;;;29.00;99.10;;;;;;4829355;29;20033;-70
2023/06/23 11:07:05;;;;;;;4.45;2.47;;;29.20;98.00;;;;;;4834176;29;20044;-70
2023/06/23 11:10:05;;;;;;;2.80;1.40;;;29.40;97.50;;;;;;4829298;29;20084;-69
2023/06/23 11:12:34;;;;;;;2.20;1.73;;;29.40;97.20;;;;;;4834338;29;20048;-71
2023/06/23 11:15:21;;;;;;;2.13;1.60;;;29.70;97.20;;;;;;4828817;29;20037;-70
2023/06/23 11:17:50;;;;;;;3.15;2.38;;;30.00;96.40;;;;;;4844100;29;20548;-70
2023/06/23 11:20:19;;;;;;;2.88;1.77;;;30.30;95.10;;;;;;4830748;29;20025;-71
2023/06/23 11:22:54;;;;;;;4.18;2.08;;;30.60;94.20;;;;;;4841926;29;20070;-71
2023/06/23 11:25:37;;;;;;;1.90;1.67;;;31.00;93.00;;;;;;4834544;29;20036;-70
2023/06/23 11:28:23;;;;;;;6.53;2.60;;;31.20;92.80;;;;;;4828418;29;20060;-71
2023/06/23 11:30:56;;;;;;;2.80;2.45;;;31.70;92.30;;;;;;4824298;29;20041;-70
2023/06/23 11:33:28;;;;;;;2.53;1.80;;;31.90;91.30;;;;;;4845220;29;20049;-69
2023/06/23 11:35:55;;;;;;;2.35;1.40;;;32.20;90.30;;;;;;4829576;29;20041;-70
2023/06/23 11:38:22;;;;;;;2.58;1.20;;;32.50;87.30;;;;;;4831130;29;20048;-70
2023/06/23 11:40:50;;;;;;;3.38;2.08;;;32.60;85.80;;;;;;4822513;29;20718;-70
2023/06/23 11:43:18;;;;;;;3.40;1.80;;;32.70;83.00;;;;;;4843789;29;20037;-70
2023/06/23 11:45:56;;;;;;;3.88;1.60;;;32.80;80.30;;;;;;4833768;29;21056;-70
2023/06/23 11:48:29;;;;;;;2.67;1.80;;;33.00;79.50;;;;;;4814614;29;20044;-70
2023/06/23 11:50:57;;;;;;;2.20;1.38;;;32.70;78.50;;;;;;4828320;29;20040;-69
2023/06/23 11:53:23;;;;;;;3.45;1.63;;;32.40;78.90;;;;;;4832413;29;20041;-69
2023/06/23 11:55:51;;;;;;;2.65;1.30;;;32.50;79.10;;;;;;4834401;29;20425;-70
2023/06/23 11:58:18;;;;;;;3.30;1.58;;;32.90;78.60;;;;;;4830488;29;20049;-69
2023/06/23 12:00:44;;;;;;;8.45;1.23;;;33.20;76.60;;;;;;4819798;29;20532;-71
2023/06/23 12:03:16;;;;;;;2.47;1.20;;;32.80;74.70;;;;;;4843381;29;20037;-71
2023/06/23 12:05:43;;;;;;;2.20;1.35;;;32.10;75.00;;;;;;4835194;29;20037;-71
2023/06/23 12:08:09;;;;;;;2.72;2.17;;;32.20;75.20;;;;;;4833276;29;20606;-72
2023/06/23 12:10:40;;;;;;;4.45;4.05;;;32.80;75.60;;;;;;4824862;29;20025;-71
2023/06/23 12:13:11;;;;;;;5.10;3.53;;;33.50;74.60;;;;;;4815369;29;20041;-70
2023/06/23 12:15:42;;;;;;;2.45;1.88;;;33.70;72.10;;;;;;4808399;29;20059;-71
2023/06/23 12:18:11;;;;;;;1.65;1.10;;;33.90;71.50;;;;;;4845190;29;21764;-71
2023/06/23 12:20:47;;;;;;;3.15;2.22;;;34.30;69.20;;;;;;4837455;29;20033;-70
2023/06/23 12:23:14;;;;;;;3.30;2.95;;;34.60;68.60;;;;;;4837655;29;20752;-70
2023/06/23 12:25:46;;;;;;;3.63;2.08;;;34.90;67.60;;;;;;4833647;29;20033;-70
2023/06/23 12:28:18;;;;;;;2.50;1.50;;;35.20;66.60;;;;;;4833520;29;20401;-68
2023/06/23 12:30:48;;;;;;;2.28;1.33;;;35.10;66.40;;;;;;4827903;29;20408;-69
2023/06/23 12:33:27;;;;;;;2.45;1.40;;;35.30;66.00;;;;;;4833495;29;20334;-69
2023/06/23 12:35:57;;;;;;;3.08;1.05;;;35.90;65.20;;;;;;4840191;29;20400;-68
2023/06/23 12:38:24;;;;;;;2.10;1.00;;;36.40;64.10;;;;;;4842223;29;20030;-69
2023/06/23 12:40:51;;;;;;;2.70;1.38;;;36.70;62.40;;;;;;4841812;29;20048;-68
2023/06/23 12:43:18;;;;;;;3.08;1.10;;;36.90;61.00;;;;;;4836581;29;20033;-69
2023/06/23 12:45:53;;;;;;;3.85;1.73;;;37.20;60.80;;;;;;4837558;29;20466;-69
2023/06/23 12:48:21;;;;;;;3.83;3.03;;;37.50;59.30;;;;;;4834298;29;20091;-69
2023/06/23 12:50:47;;;;;;;2.05;1.65;;;37.80;58.40;;;;;;4830611;29;20476;-69